createdAt,value
2018-01-04T00:00:28.748Z,7.95
2018-01-04T00:02:58.599Z,8.55
2018-01-04T00:05:26.972Z,7.70
2018-01-04T00:07:59.418Z,7.07
2018-01-04T00:10:27.027Z,6.68
2018-01-04T00:12:54.580Z,7.95
2018-01-04T00:15:23.977Z,6.50
2018-01-04T00:17:52.087Z,7.57
2018-01-04T00:20:22.640Z,9.20
2018-01-04T00:22:50.318Z,6.80
2018-01-04T00:25:17.895Z,5.72
2018-01-04T00:27:46.390Z,7.72
2018-01-04T00:30:14.213Z,6.93
2018-01-04T00:32:42.583Z,7.78
2018-01-04T00:35:10.976Z,9.50
2018-01-04T00:37:38.622Z,4.72
2018-01-04T00:40:06.233Z,7.03
2018-01-04T00:42:34.799Z,7.40
2018-01-04T00:45:02.405Z,7.65
2018-01-04T00:47:30.003Z,5.70
2018-01-04T00:49:57.607Z,5.37
2018-01-04T00:52:25.182Z,6.90
2018-01-04T00:54:52.747Z,6.28
2018-01-04T00:57:20.374Z,6.87
2018-01-04T00:59:48.095Z,8.13
2018-01-04T01:02:16.178Z,7.10
2018-01-04T01:04:44.487Z,8.75
2018-01-04T01:07:12.649Z,7.25
2018-01-04T01:09:40.207Z,6.72
2018-01-04T01:12:07.816Z,6.57
2018-01-04T01:14:35.351Z,6.50
2018-01-04T01:17:03.046Z,6.25
2018-01-04T01:19:30.643Z,5.97
2018-01-04T01:22:00.204Z,8.80
2018-01-04T01:24:28.061Z,6.85
2018-01-04T01:26:56.313Z,7.43
2018-01-04T01:29:24.263Z,7.18
2018-01-04T01:31:51.907Z,7.72
2018-01-04T01:34:19.558Z,4.80
2018-01-04T01:36:47.285Z,6.70
2018-01-04T01:39:16.065Z,6.82
2018-01-04T01:41:43.857Z,7.03
2018-01-04T01:44:11.520Z,8.13
2018-01-04T01:46:39.082Z,6.72
2018-01-04T01:49:16.690Z,6.05
2018-01-04T01:51:44.306Z,6.35
2018-01-04T01:54:11.954Z,8.68
2018-01-04T01:56:39.695Z,7.47
2018-01-04T01:59:08.644Z,7.28
2018-01-04T02:01:36.517Z,7.32
2018-01-04T02:04:05.343Z,5.53
2018-01-04T02:06:33.049Z,7.05
2018-01-04T02:09:00.610Z,7.85
2018-01-04T02:11:29.529Z,7.70
2018-01-04T02:13:58.027Z,7.60
2018-01-04T02:16:25.663Z,6.80
2018-01-04T02:19:05.191Z,7.60
2018-01-04T02:21:44.959Z,7.00
2018-01-04T02:24:24.292Z,7.80
2018-01-04T02:27:03.919Z,5.60
2018-01-04T02:29:43.210Z,6.57
2018-01-04T02:32:22.993Z,5.93
2018-01-04T02:35:02.568Z,7.40
2018-01-04T02:37:42.021Z,5.93
2018-01-04T02:40:21.521Z,7.68
2018-01-04T02:43:01.787Z,6.55
2018-01-04T02:45:56.136Z,7.90
2018-01-04T02:48:23.785Z,6.25
2018-01-04T02:50:51.354Z,7.05
2018-01-04T02:53:19.833Z,8.77
2018-01-04T02:55:47.428Z,4.87
2018-01-04T02:58:14.991Z,6.45
2018-01-04T03:00:43.429Z,7.30
2018-01-04T03:03:11.793Z,5.70
2018-01-04T03:05:41.031Z,7.07
2018-01-04T03:08:09.345Z,5.75
2018-01-04T03:10:37.725Z,8.23
2018-01-04T03:13:05.406Z,6.40
2018-01-04T03:15:33.078Z,6.78
2018-01-04T03:18:01.688Z,7.93
2018-01-04T03:20:29.343Z,5.85
2018-01-04T03:23:03.820Z,6.70
2018-01-04T03:25:36.984Z,7.93
2018-01-04T03:28:10.332Z,5.87
2018-01-04T03:30:43.723Z,7.10
2018-01-04T03:33:16.986Z,5.60
2018-01-04T03:35:51.294Z,5.75
2018-01-04T03:38:24.666Z,7.90
2018-01-04T03:40:58.741Z,6.57
2018-01-04T03:43:31.994Z,6.18
2018-01-04T03:46:05.079Z,7.87
2018-01-04T03:48:32.718Z,7.32
2018-01-04T03:51:06.967Z,6.00
2018-01-04T03:53:40.481Z,7.60
2018-01-04T03:56:13.775Z,8.48
2018-01-04T03:58:47.082Z,5.95
2018-01-04T04:01:20.621Z,6.53
2018-01-04T04:03:48.375Z,6.00
2018-01-04T04:06:22.253Z,6.32
2018-01-04T04:08:50.337Z,9.88
2018-01-04T04:11:17.908Z,9.32
2018-01-04T04:13:46.369Z,7.07
2018-01-04T04:16:13.979Z,8.57
2018-01-04T04:18:42.395Z,8.93
2018-01-04T04:21:10.167Z,7.32
2018-01-04T04:23:37.831Z,7.78
2018-01-04T04:26:05.452Z,7.20
2018-01-04T04:28:33.024Z,7.68
2018-01-04T04:31:00.643Z,7.57
2018-01-04T04:33:28.221Z,7.62
2018-01-04T04:35:56.597Z,6.82
2018-01-04T04:38:24.944Z,7.93
2018-01-04T04:40:52.528Z,6.80
2018-01-04T04:43:20.184Z,7.47
2018-01-04T04:45:47.766Z,6.20
2018-01-04T04:48:15.307Z,7.28
2018-01-04T04:50:42.901Z,8.10
2018-01-04T04:53:11.200Z,5.95
2018-01-04T04:55:38.766Z,9.10
2018-01-04T04:58:07.122Z,7.25
2018-01-04T05:00:34.702Z,6.70
2018-01-04T05:03:02.429Z,7.43
2018-01-04T05:05:29.972Z,7.78
2018-01-04T05:07:57.917Z,7.22
2018-01-04T05:10:26.245Z,7.57
2018-01-04T05:12:53.893Z,7.80
2018-01-04T05:15:21.413Z,6.20
2018-01-04T05:17:49.916Z,7.05
2018-01-04T05:20:17.522Z,7.87
2018-01-04T05:22:45.135Z,8.52
2018-01-04T05:25:13.775Z,7.22
2018-01-04T05:27:41.502Z,7.28
2018-01-04T05:30:09.876Z,7.90
2018-01-04T05:32:38.190Z,7.30
2018-01-04T05:35:05.811Z,8.95
2018-01-04T05:37:33.449Z,7.03
2018-01-04T05:40:01.073Z,10.20
2018-01-04T05:42:28.956Z,6.50
2018-01-04T05:44:56.559Z,6.55
2018-01-04T05:47:25.942Z,6.97
2018-01-04T05:49:53.601Z,8.88
2018-01-04T05:52:21.134Z,8.70
2018-01-04T05:54:48.653Z,7.28
2018-01-04T05:57:16.969Z,10.25
2018-01-04T05:59:44.652Z,8.55
2018-01-04T06:02:12.209Z,8.50
2018-01-04T06:04:40.473Z,9.40
2018-01-04T06:07:08.080Z,9.63
2018-01-04T06:09:35.652Z,10.30
2018-01-04T06:12:03.263Z,8.82
2018-01-04T06:14:30.929Z,8.60
2018-01-04T06:16:59.360Z,10.38
2018-01-04T06:19:27.753Z,8.60
2018-01-04T06:21:55.824Z,10.45
2018-01-04T06:24:23.401Z,9.85
2018-01-04T06:26:50.957Z,11.10
2018-01-04T06:29:18.564Z,8.52
2018-01-04T06:31:46.253Z,10.57
2018-01-04T06:34:13.840Z,11.10
2018-01-04T06:36:41.424Z,10.50
2018-01-04T06:39:09.930Z,9.25
2018-01-04T06:41:37.539Z,9.75
2018-01-04T06:44:05.122Z,9.40
2018-01-04T06:46:32.748Z,10.95
2018-01-04T06:49:00.343Z,11.30
2018-01-04T06:51:28.041Z,6.12
2018-01-04T06:53:56.382Z,10.65
2018-01-04T06:56:25.682Z,12.48
2018-01-04T06:58:53.321Z,7.80
2018-01-04T07:01:20.881Z,10.70
2018-01-04T07:03:48.594Z,10.02
2018-01-04T07:06:16.228Z,10.23
2018-01-04T07:08:43.865Z,10.20
2018-01-04T07:11:11.384Z,11.52
2018-01-04T07:13:38.977Z,10.38
2018-01-04T07:16:06.500Z,10.77
2018-01-04T07:18:34.097Z,10.60
2018-01-04T07:21:01.663Z,9.90
2018-01-04T07:23:29.259Z,12.23
2018-01-04T07:25:56.824Z,10.05
2018-01-04T07:28:24.365Z,10.02
2018-01-04T07:30:51.924Z,11.40
2018-01-04T07:33:20.408Z,9.95
2018-01-04T07:35:48.065Z,8.60
2018-01-04T07:38:15.645Z,10.13
2018-01-04T07:40:43.243Z,9.88
2018-01-04T07:43:10.866Z,10.55
2018-01-04T07:45:38.402Z,11.57
2018-01-04T07:48:05.995Z,9.60
2018-01-04T07:50:33.623Z,9.27
2018-01-04T07:53:01.167Z,8.65
2018-01-04T07:55:28.776Z,10.20
2018-01-04T07:57:56.344Z,9.55
2018-01-04T08:00:24.664Z,9.63
2018-01-04T08:02:52.258Z,17.23
2018-01-04T08:05:19.848Z,7.97
2018-01-04T08:07:48.157Z,10.13
2018-01-04T08:10:15.703Z,8.23
2018-01-04T08:12:43.283Z,9.18
2018-01-04T08:15:10.826Z,9.98
2018-01-04T08:17:38.380Z,9.38
2018-01-04T08:20:05.917Z,7.75
2018-01-04T08:22:34.831Z,8.80
2018-01-04T08:25:02.413Z,7.78
2018-01-04T08:27:30.017Z,7.80
2018-01-04T08:29:57.566Z,8.48
2018-01-04T08:32:25.221Z,9.68
2018-01-04T08:34:52.753Z,8.73
2018-01-04T08:37:20.430Z,10.70
2018-01-04T08:39:48.810Z,8.45
2018-01-04T08:42:18.288Z,8.80
2018-01-04T08:44:45.885Z,8.95
2018-01-04T08:47:15.207Z,10.20
2018-01-04T08:49:42.846Z,7.62
2018-01-04T08:52:10.374Z,8.23
2018-01-04T08:54:37.938Z,9.75
2018-01-04T08:57:05.517Z,11.68
2018-01-04T08:59:33.982Z,10.75
2018-01-04T09:02:01.553Z,10.23
2018-01-04T09:04:29.127Z,10.52
2018-01-04T09:06:56.767Z,9.95
2018-01-04T09:09:24.373Z,10.35
2018-01-04T09:11:51.956Z,10.63
2018-01-04T09:14:20.369Z,8.35
2018-01-04T09:16:47.975Z,11.48
2018-01-04T09:19:16.338Z,9.20
2018-01-04T09:21:44.715Z,11.68
2018-01-04T09:24:12.298Z,10.07
2018-01-04T09:26:41.309Z,10.15
2018-01-04T09:29:09.749Z,8.88
2018-01-04T09:31:37.447Z,9.77
2018-01-04T09:34:05.019Z,8.50
2018-01-04T09:36:32.570Z,9.25
2018-01-04T09:39:01.028Z,9.45
2018-01-04T09:41:28.611Z,8.60
2018-01-04T09:43:56.919Z,8.00
2018-01-04T09:46:26.225Z,8.75
2018-01-04T09:48:53.872Z,8.25
2018-01-04T09:51:21.394Z,8.82
2018-01-04T09:53:48.997Z,9.40
2018-01-04T09:56:17.510Z,8.15
2018-01-04T09:58:45.114Z,9.00
2018-01-04T10:01:13.417Z,8.15
2018-01-04T10:03:40.979Z,9.10
2018-01-04T10:06:08.548Z,7.45
2018-01-04T10:08:36.132Z,8.40
2018-01-04T10:11:03.672Z,9.23
2018-01-04T10:13:31.270Z,7.68
2018-01-04T10:15:59.754Z,8.75
2018-01-04T10:18:27.360Z,8.18
2018-01-04T10:20:54.875Z,8.88
2018-01-04T10:23:22.478Z,9.52
2018-01-04T10:25:50.039Z,9.45
2018-01-04T10:28:18.353Z,9.15
2018-01-04T10:30:45.942Z,11.15
2018-01-04T10:33:14.365Z,8.73
2018-01-04T10:35:42.717Z,8.30
2018-01-04T10:38:10.318Z,7.97
2018-01-04T10:40:38.021Z,9.35
2018-01-04T10:43:06.409Z,7.65
2018-01-04T10:45:34.800Z,9.52
2018-01-04T10:48:02.390Z,8.20
2018-01-04T10:50:30.018Z,7.50
2018-01-04T10:52:57.601Z,8.10
2018-01-04T10:55:25.178Z,9.07
2018-01-04T10:57:52.746Z,9.15
2018-01-04T11:00:20.317Z,8.10
2018-01-04T11:02:47.869Z,9.20
2018-01-04T11:05:15.429Z,8.00
2018-01-04T11:07:42.965Z,8.98
2018-01-04T11:10:10.634Z,7.82
2018-01-04T11:12:38.171Z,9.43
2018-01-04T11:15:05.737Z,9.82
2018-01-04T11:17:33.317Z,8.07
2018-01-04T11:20:00.880Z,8.95
2018-01-04T11:22:29.434Z,8.65
2018-01-04T11:24:57.018Z,8.10
2018-01-04T11:27:24.649Z,9.20
2018-01-04T11:29:52.448Z,8.10
2018-01-04T11:32:20.089Z,9.23
2018-01-04T11:34:47.796Z,7.30
2018-01-04T11:37:15.337Z,7.30
2018-01-04T11:39:43.028Z,7.70
2018-01-04T11:42:10.624Z,7.82
2018-01-04T11:44:38.773Z,8.95
2018-01-04T11:47:06.381Z,9.25
2018-01-04T11:49:33.982Z,9.40
2018-01-04T11:52:02.395Z,7.75
2018-01-04T11:54:29.987Z,9.23
2018-01-04T11:56:57.570Z,8.40
2018-01-04T11:59:25.162Z,8.30
2018-01-04T12:01:53.564Z,8.32
2018-01-04T12:04:21.224Z,9.18
2018-01-04T12:06:49.621Z,11.05
2018-01-04T12:09:17.261Z,8.38
2018-01-04T12:11:44.827Z,9.43
2018-01-04T12:14:12.396Z,9.30
2018-01-04T12:16:40.119Z,9.43
2018-01-04T12:19:07.706Z,9.25
2018-01-04T12:21:35.308Z,9.90
2018-01-04T12:24:02.897Z,9.05
2018-01-04T12:26:30.451Z,8.98
2018-01-04T12:28:58.074Z,7.93
2018-01-04T12:31:26.029Z,9.45
2018-01-04T12:33:54.579Z,9.15
2018-01-04T12:36:22.983Z,7.15
2018-01-04T12:38:50.537Z,7.70
2018-01-04T12:41:18.128Z,8.02
2018-01-04T12:43:45.720Z,10.60
2018-01-04T12:46:13.318Z,7.57
2018-01-04T12:48:40.874Z,7.18
2018-01-04T12:51:08.497Z,6.15
2018-01-04T12:53:36.210Z,6.50
2018-01-04T12:56:03.842Z,7.37
2018-01-04T12:58:32.158Z,6.07
2018-01-04T13:00:59.774Z,6.03
2018-01-04T13:03:28.152Z,7.90
2018-01-04T13:05:56.528Z,7.25
2018-01-04T13:08:24.092Z,8.90
2018-01-04T13:10:51.645Z,8.85
2018-01-04T13:13:19.189Z,7.05
2018-01-04T13:15:47.503Z,7.00
2018-01-04T13:18:16.289Z,4.80
2018-01-04T13:20:44.857Z,5.37
2018-01-04T13:23:12.581Z,4.95
2018-01-04T13:25:40.201Z,6.03
2018-01-04T13:28:07.764Z,5.32
2018-01-04T13:30:35.368Z,5.65
2018-01-04T13:33:02.937Z,3.95
2018-01-04T13:35:30.481Z,3.90
2018-01-04T13:37:58.032Z,3.90
2018-01-04T13:40:25.650Z,4.32
2018-01-04T13:42:53.197Z,3.25
2018-01-04T13:45:21.538Z,3.25
2018-01-04T13:47:49.076Z,3.87
2018-01-04T13:50:16.674Z,2.25
2018-01-04T13:52:44.353Z,3.35
2018-01-04T13:55:11.990Z,3.33
2018-01-04T13:57:40.228Z,2.62
2018-01-04T14:00:07.786Z,2.22
2018-01-04T14:02:35.610Z,1.90
2018-01-04T14:05:03.911Z,2.50
2018-01-04T14:07:31.618Z,2.83
2018-01-04T14:10:00.040Z,3.35
2018-01-04T14:12:27.646Z,2.17
2018-01-04T14:14:55.227Z,2.72
2018-01-04T14:17:22.881Z,4.80
2018-01-04T14:19:50.413Z,3.80
2018-01-04T14:22:17.959Z,7.82
2018-01-04T14:24:45.519Z,10.75
2018-01-04T14:27:13.526Z,24.10
2018-01-04T14:29:41.058Z,3.40
2018-01-04T14:32:08.610Z,3.53
2018-01-04T14:34:36.708Z,3.08
2018-01-04T14:37:04.395Z,5.20
2018-01-04T14:39:31.973Z,4.82
2018-01-04T14:41:59.525Z,5.05
2018-01-04T14:44:27.084Z,6.28
2018-01-04T14:46:54.754Z,4.90
2018-01-04T14:49:22.417Z,3.92
2018-01-04T14:51:49.994Z,5.37
2018-01-04T14:54:17.961Z,4.20
2018-01-04T14:56:45.560Z,5.47
2018-01-04T14:59:13.264Z,4.60
2018-01-04T15:01:40.841Z,4.82
2018-01-04T15:04:09.418Z,5.80
2018-01-04T15:06:37.155Z,6.10
2018-01-04T15:09:04.755Z,6.18
2018-01-04T15:11:32.332Z,6.15
2018-01-04T15:13:59.960Z,7.50
2018-01-04T15:16:27.579Z,6.75
2018-01-04T15:18:55.167Z,8.02
2018-01-04T15:21:23.481Z,10.00
2018-01-04T15:23:51.085Z,9.85
2018-01-04T15:26:18.618Z,9.85
2018-01-04T15:28:46.312Z,10.55
2018-01-04T15:31:14.028Z,10.07
2018-01-04T15:33:41.601Z,12.70
2018-01-04T15:36:09.223Z,12.43
2018-01-04T15:38:36.869Z,9.55
2018-01-04T15:41:05.213Z,10.52
2018-01-04T15:43:32.813Z,16.25
2018-01-04T15:46:00.390Z,21.80
2018-01-04T15:48:28.087Z,12.98
2018-01-04T15:53:35.532Z,11.75
2018-01-04T15:56:04.300Z,11.40
2018-01-04T15:58:31.874Z,11.43
2018-01-04T16:00:59.468Z,10.52
2018-01-04T16:03:27.123Z,11.15
2018-01-04T16:05:55.609Z,10.07
2018-01-04T16:08:23.267Z,13.85
2018-01-04T16:10:51.767Z,13.43
2018-01-04T16:13:19.387Z,16.48
2018-01-04T16:15:47.792Z,21.50
2018-01-04T16:18:15.346Z,19.02
2018-01-04T16:20:50.913Z,16.67
2018-01-04T16:23:18.464Z,17.35
2018-01-04T16:25:46.022Z,16.17
2018-01-04T16:28:14.425Z,16.83
2018-01-04T16:30:42.297Z,14.48
2018-01-04T16:33:10.053Z,16.48
2018-01-04T16:35:37.656Z,14.30
2018-01-04T16:38:05.244Z,17.40
2018-01-04T16:40:33.657Z,15.65
2018-01-04T16:43:01.245Z,20.10
2018-01-04T16:45:28.848Z,19.42
2018-01-04T16:47:57.134Z,19.40
2018-01-04T16:50:24.777Z,19.23
2018-01-04T16:52:52.583Z,20.37
2018-01-04T16:55:20.154Z,20.48
2018-01-04T16:57:47.938Z,19.20
2018-01-04T17:00:15.934Z,19.40
2018-01-04T17:02:44.257Z,23.00
2018-01-04T17:05:11.900Z,17.00
2018-01-04T17:07:39.965Z,16.92
2018-01-04T17:10:07.897Z,18.65
2018-01-04T17:12:36.420Z,18.48
2018-01-04T17:15:04.028Z,17.35
2018-01-04T17:17:31.566Z,16.08
2018-01-04T17:19:59.247Z,15.38
2018-01-04T17:22:27.028Z,16.15
2018-01-04T17:24:54.572Z,16.15
2018-01-04T17:27:22.132Z,18.50
2018-01-04T17:29:49.756Z,19.65
2018-01-04T17:32:17.522Z,18.25
2018-01-04T17:34:45.082Z,17.80
2018-01-04T17:37:12.689Z,16.77
2018-01-04T17:39:41.050Z,18.55
2018-01-04T17:42:08.657Z,18.45
2018-01-04T17:44:36.244Z,17.15
2018-01-04T17:47:03.828Z,18.20
2018-01-04T17:49:31.391Z,18.45
2018-01-04T17:51:59.239Z,17.00
2018-01-04T17:54:26.995Z,17.73
2018-01-04T17:56:54.577Z,19.60
2018-01-04T17:59:22.201Z,17.98
2018-01-04T18:01:49.776Z,18.35
2018-01-04T18:04:17.388Z,17.83
2018-01-04T18:06:44.984Z,18.48
2018-01-04T18:09:12.574Z,17.33
2018-01-04T18:11:40.324Z,21.90
2018-01-04T18:14:07.932Z,19.10
2018-01-04T18:16:35.621Z,17.70
2018-01-04T18:19:04.020Z,17.12
2018-01-04T18:21:31.593Z,18.17
2018-01-04T18:24:00.018Z,17.10
2018-01-04T18:26:27.584Z,17.87
2018-01-04T18:28:55.117Z,16.77
2018-01-04T18:31:24.171Z,10.90
2018-01-04T18:33:51.760Z,12.68
2018-01-04T18:36:20.267Z,10.93
2018-01-04T18:38:47.870Z,11.02
2018-01-04T18:41:15.533Z,9.27
2018-01-04T18:43:43.227Z,9.63
2018-01-04T18:46:11.631Z,10.45
2018-01-04T18:48:39.183Z,10.60
2018-01-04T18:51:06.775Z,7.65
2018-01-04T18:53:34.311Z,8.38
2018-01-04T18:56:01.925Z,6.95
2018-01-04T18:58:29.530Z,7.87
2018-01-04T19:00:57.155Z,7.10
2018-01-04T19:03:25.612Z,7.50
2018-01-04T19:05:53.190Z,7.55
2018-01-04T19:08:20.779Z,7.62
2018-01-04T19:10:48.318Z,8.07
2018-01-04T19:13:16.694Z,8.30
2018-01-04T19:15:44.308Z,5.68
2018-01-04T19:18:11.893Z,7.87
2018-01-04T19:20:39.463Z,8.23
2018-01-04T19:23:07.016Z,7.40
2018-01-04T19:25:36.025Z,7.68
2018-01-04T19:28:03.619Z,8.25
2018-01-04T19:30:31.206Z,7.85
2018-01-04T19:32:59.521Z,7.97
2018-01-04T19:35:27.056Z,8.20
2018-01-04T19:37:54.677Z,4.95
2018-01-04T19:40:22.276Z,8.23
2018-01-04T19:42:49.836Z,8.52
2018-01-04T19:45:17.389Z,8.82
2018-01-04T19:47:45.079Z,8.15
2018-01-04T19:50:12.594Z,8.85
2018-01-04T19:52:40.216Z,9.68
2018-01-04T19:55:08.529Z,8.13
2018-01-04T19:57:36.933Z,8.95
2018-01-04T20:00:04.541Z,8.75
2018-01-04T20:02:32.563Z,7.50
2018-01-04T20:05:00.154Z,7.50
2018-01-04T20:07:27.786Z,8.07
2018-01-04T20:09:55.405Z,5.55
2018-01-04T20:12:22.962Z,12.48
2018-01-04T20:14:50.578Z,6.18
2018-01-04T20:17:18.207Z,6.93
2018-01-04T20:19:46.593Z,8.00
2018-01-04T20:22:14.161Z,7.32
2018-01-04T20:24:41.732Z,3.90
2018-01-04T20:27:09.553Z,6.90
2018-01-04T20:29:39.276Z,5.32
2018-01-04T20:32:07.673Z,6.40
2018-01-04T20:34:35.977Z,7.20
2018-01-04T20:37:03.869Z,7.43
2018-01-04T20:39:31.411Z,6.03
2018-01-04T20:41:58.970Z,7.37
2018-01-04T20:44:26.544Z,5.50
2018-01-04T20:46:54.857Z,8.57
2018-01-04T20:49:22.411Z,6.35
2018-01-04T20:51:50.750Z,7.28
2018-01-04T20:54:18.313Z,6.43
2018-01-04T20:56:45.892Z,3.95
2018-01-04T20:59:13.444Z,4.50
2018-01-04T21:01:41.177Z,6.18
2018-01-04T21:04:08.923Z,4.78
2018-01-04T21:06:37.335Z,4.37
2018-01-04T21:09:04.912Z,5.22
2018-01-04T21:11:32.468Z,3.78
2018-01-04T21:14:00.705Z,4.65
2018-01-04T21:16:28.264Z,3.33
2018-01-04T21:18:55.786Z,4.70
2018-01-04T21:21:24.115Z,3.97
2018-01-04T21:23:51.675Z,3.42
2018-01-04T21:26:20.099Z,4.25
2018-01-04T21:28:47.694Z,3.83
2018-01-04T21:31:15.251Z,3.70
2018-01-04T21:33:42.837Z,4.90
2018-01-04T21:36:10.374Z,2.12
2018-01-04T21:38:37.916Z,3.65
2018-01-04T21:41:05.540Z,2.22
2018-01-04T21:43:33.114Z,3.47
2018-01-04T21:46:01.447Z,3.47
2018-01-04T21:48:29.059Z,4.47
2018-01-04T21:50:57.403Z,2.45
2018-01-04T21:53:25.759Z,3.90
2018-01-04T21:55:53.504Z,2.33
2018-01-04T21:58:21.036Z,2.17
2018-01-04T22:00:49.443Z,2.15
2018-01-04T22:03:16.983Z,2.08
2018-01-04T22:05:45.444Z,3.45
2018-01-04T22:08:13.855Z,1.67
2018-01-04T22:10:41.401Z,2.17
2018-01-04T22:13:09.888Z,1.95
2018-01-04T22:15:37.448Z,1.55
2018-01-04T22:18:05.043Z,2.00
2018-01-04T22:20:32.648Z,2.05
2018-01-04T22:23:00.238Z,1.83
2018-01-04T22:25:27.886Z,1.62
2018-01-04T22:27:56.265Z,1.70
2018-01-04T22:30:24.580Z,1.98
2018-01-04T22:32:53.769Z,1.48
2018-01-04T22:35:21.424Z,1.30
2018-01-04T22:37:49.735Z,1.58
2018-01-04T22:40:17.341Z,1.95
2018-01-04T22:42:45.945Z,1.83
2018-01-04T22:45:14.581Z,1.90
2018-01-04T22:47:42.097Z,1.40
2018-01-04T22:50:09.680Z,1.98
2018-01-04T22:52:37.262Z,1.83
2018-01-04T22:55:05.700Z,1.70
2018-01-04T22:57:33.243Z,1.73
2018-01-04T23:00:00.768Z,1.83
2018-01-04T23:02:28.537Z,1.73
2018-01-04T23:04:56.227Z,1.70
2018-01-04T23:07:23.917Z,2.00
2018-01-04T23:09:51.502Z,2.35
2018-01-04T23:12:20.205Z,1.20
2018-01-04T23:14:47.887Z,2.15
2018-01-04T23:17:15.443Z,1.80
2018-01-04T23:19:43.491Z,1.20
2018-01-04T23:22:11.078Z,1.60
2018-01-04T23:24:39.644Z,1.48
2018-01-04T23:27:07.470Z,1.15
2018-01-04T23:29:36.016Z,1.87
2018-01-04T23:32:03.592Z,0.95
2018-01-04T23:37:10.698Z,1.65
2018-01-04T23:39:39.037Z,1.35
2018-01-04T23:42:06.819Z,1.20
2018-01-04T23:44:35.442Z,1.50
2018-01-04T23:47:04.632Z,1.48
2018-01-04T23:49:32.395Z,1.60
2018-01-04T23:52:00.273Z,1.70
2018-01-04T23:54:27.895Z,1.50
2018-01-04T23:56:55.446Z,1.73
2018-01-04T23:59:23.017Z,2.65
